MBS International Airport Saginaw US
ICAO: KMBS
IATA: MBS
Category: Large
Scheduled Services: Yes

Elevation: 668 ft
TransAlt. 18000 ft.

Airport Communications:
SAGINAW APP/DEP:120.95
ATIS:118.6
CLNC DEL:121.85
CTAF:120.1
GND:121.7
LANSING RDO:122.2
SAGINAW TWR:120.1
UNICOM:122.95

KMBS Zoom In..

If you have problems with the map follow the link
https://www.worldairports.se/pages/airport.php?
ICAO=KMBS

Runways:

(A) RW 05 length 8002 ft width 150 ft
ILS 108.70 / hdg 50

(B) RW 14 length 6399 ft width 150 ft
---- / hdg 140

(C) RW 23 length 8002 ft width 150 ft
ILS 108.70 / hdg 230

(D) RW 32 length 6399 ft width 150 ft
---- / hdg 320

Location; KMBS
Day. 14 / Time. 04.53 Zulu
* Altimeter: 29.81
* Temperature: 01° c. 33.8°f.
* Wind from: 000° Speed 00 kn.
Dewpoint: -03° c.
Visibility: 10 Statute Miles.
Clouds: Overcast 7500 ft.

KMBS 140453Z AUTO 00000KT 10SM OVC075 01/M03 A2981 RMK AO2 SLP101 T00061028 400391022


Wind - Calm.

 
 
jpsmedia worldairports.se 2019   terms of use